createdAt,value
2018-07-28T00:01:12.258Z,19.47
2018-07-28T00:03:42.929Z,16.10
2018-07-28T00:06:13.840Z,14.97
2018-07-28T00:08:44.668Z,17.17
2018-07-28T00:11:15.091Z,16.47
2018-07-28T00:13:45.563Z,16.37
2018-07-28T00:16:15.931Z,17.83
2018-07-28T00:18:46.568Z,18.37
2018-07-28T00:21:16.943Z,16.97
2018-07-28T00:23:47.592Z,17.07
2018-07-28T00:26:44.154Z,16.70
2018-07-28T00:29:14.496Z,17.50
2018-07-28T00:31:44.835Z,15.97
2018-07-28T00:34:18.097Z,15.73
2018-07-28T00:36:48.815Z,16.03
2018-07-28T00:39:19.987Z,15.63
2018-07-28T00:41:50.271Z,15.53
2018-07-28T00:44:20.542Z,14.00
2018-07-28T00:50:32.361Z,14.00
2018-07-28T00:53:09.266Z,14.00
2018-07-28T00:56:49.413Z,12.50
2018-07-28T00:59:19.745Z,13.40
2018-07-28T01:01:50.885Z,14.27
2018-07-28T01:04:28.581Z,14.20
2018-07-28T01:06:58.757Z,14.60
2018-07-28T01:09:29.143Z,13.03
2018-07-28T01:12:01.929Z,13.57
2018-07-28T01:14:32.361Z,12.77
2018-07-28T01:17:03.777Z,12.10
2018-07-28T01:19:34.064Z,11.90
2018-07-28T01:22:04.309Z,11.20
2018-07-28T01:24:34.720Z,11.93
2018-07-28T01:27:05.624Z,11.53
2018-07-28T01:29:35.827Z,12.30
2018-07-28T01:32:06.913Z,12.23
2018-07-28T01:34:37.224Z,12.53
2018-07-28T01:37:07.464Z,12.00
2018-07-28T01:39:38.660Z,12.50
2018-07-28T01:42:09.151Z,12.13
2018-07-28T01:44:39.873Z,11.87
2018-07-28T01:47:11.117Z,11.63
2018-07-28T01:49:41.632Z,13.50
2018-07-28T01:52:11.978Z,12.83
2018-07-28T01:54:42.794Z,12.80
2018-07-28T01:57:13.207Z,14.33
2018-07-28T01:59:43.517Z,13.73
2018-07-28T02:02:13.836Z,13.70
2018-07-28T02:04:44.084Z,13.53
2018-07-28T02:07:14.404Z,13.67
2018-07-28T02:09:44.738Z,13.00
2018-07-28T02:12:16.143Z,13.07
2018-07-28T02:14:46.521Z,13.57
2018-07-28T02:17:23.440Z,13.57
2018-07-28T02:19:53.854Z,14.37
2018-07-28T02:22:24.118Z,14.67
2018-07-28T02:24:54.355Z,14.87
2018-07-28T02:27:24.713Z,17.03
2018-07-28T02:29:55.012Z,18.37
2018-07-28T02:32:25.320Z,18.83
2018-07-28T02:34:55.630Z,18.83
2018-07-28T02:37:25.828Z,18.53
2018-07-28T02:39:56.544Z,17.63
2018-07-28T02:42:26.848Z,18.23
2018-07-28T02:44:57.164Z,16.97
2018-07-28T02:47:27.625Z,16.67
2018-07-28T02:49:58.080Z,16.17
2018-07-28T02:52:29.000Z,16.13
2018-07-28T02:55:00.043Z,15.63
2018-07-28T02:57:32.175Z,15.60
2018-07-28T03:00:03.529Z,15.87
2018-07-28T03:02:33.858Z,16.17
2018-07-28T03:05:04.240Z,16.40
2018-07-28T03:07:34.892Z,16.60
2018-07-28T03:10:09.288Z,17.23
2018-07-28T03:12:40.560Z,16.50
2018-07-28T03:20:11.048Z,16.90
2018-07-28T03:22:44.403Z,16.83
